sensor_id;sensor_type;location;lat;lon;timestamp;temperature;humidity
67901;DHT22;54700;51.796;10.956;2022-09-21T00:01:49;8.80;84.50
67901;DHT22;54700;51.796;10.956;2022-09-21T00:04:15;8.80;84.20
67901;DHT22;54700;51.796;10.956;2022-09-21T00:06:42;8.90;83.90
67901;DHT22;54700;51.796;10.956;2022-09-21T00:09:10;8.90;83.60
67901;DHT22;54700;51.796;10.956;2022-09-21T00:11:36;8.90;83.50
67901;DHT22;54700;51.796;10.956;2022-09-21T00:14:04;8.90;83.60
67901;DHT22;54700;51.796;10.956;2022-09-21T00:16:34;8.90;83.60
67901;DHT22;54700;51.796;10.956;2022-09-21T00:19:03;8.90;83.40
67901;DHT22;54700;51.796;10.956;2022-09-21T00:21:31;8.90;83.20
67901;DHT22;54700;51.796;10.956;2022-09-21T00:23:58;8.90;83.10
67901;DHT22;54700;51.796;10.956;2022-09-21T00:26:27;8.90;83.00
67901;DHT22;54700;51.796;10.956;2022-09-21T00:28:55;8.90;83.00
67901;DHT22;54700;51.796;10.956;2022-09-21T00:31:24;9.00;83.00
67901;DHT22;54700;51.796;10.956;2022-09-21T00:33:51;9.00;82.90
67901;DHT22;54700;51.796;10.956;2022-09-21T00:36:21;9.00;82.90
67901;DHT22;54700;51.796;10.956;2022-09-21T00:38:50;9.10;82.80
67901;DHT22;54700;51.796;10.956;2022-09-21T00:41:17;9.00;82.80
67901;DHT22;54700;51.796;10.956;2022-09-21T00:43:45;9.10;83.00
67901;DHT22;54700;51.796;10.956;2022-09-21T00:46:15;9.10;83.00
67901;DHT22;54700;51.796;10.956;2022-09-21T00:48:49;9.20;83.00
67901;DHT22;54700;51.796;10.956;2022-09-21T00:51:15;9.20;83.00
67901;DHT22;54700;51.796;10.956;2022-09-21T00:53:44;9.10;83.00
67901;DHT22;54700;51.796;10.956;2022-09-21T00:56:14;9.10;83.20
67901;DHT22;54700;51.796;10.956;2022-09-21T00:58:42;9.10;83.30
67901;DHT22;54700;51.796;10.956;2022-09-21T01:01:11;9.10;83.50
67901;DHT22;54700;51.796;10.956;2022-09-21T01:03:40;9.10;83.70
67901;DHT22;54700;51.796;10.956;2022-09-21T01:06:10;9.10;83.70
67901;DHT22;54700;51.796;10.956;2022-09-21T01:08:37;9.20;84.00
67901;DHT22;54700;51.796;10.956;2022-09-21T01:11:11;9.10;84.00
67901;DHT22;54700;51.796;10.956;2022-09-21T01:13:52;9.20;84.00
67901;DHT22;54700;51.796;10.956;2022-09-21T01:16:31;9.10;84.00
67901;DHT22;54700;51.796;10.956;2022-09-21T01:19:08;9.10;84.10
67901;DHT22;54700;51.796;10.956;2022-09-21T01:21:50;9.10;84.30
67901;DHT22;54700;51.796;10.956;2022-09-21T01:24:34;9.10;84.30
67901;DHT22;54700;51.796;10.956;2022-09-21T01:27:34;9.10;84.60
67901;DHT22;54700;51.796;10.956;2022-09-21T01:30:13;9.10;84.50
67901;DHT22;54700;51.796;10.956;2022-09-21T01:32:43;9.00;84.70
67901;DHT22;54700;51.796;10.956;2022-09-21T01:35:14;9.10;85.00
67901;DHT22;54700;51.796;10.956;2022-09-21T01:37:45;9.10;85.00
67901;DHT22;54700;51.796;10.956;2022-09-21T01:40:17;9.10;85.10
67901;DHT22;54700;51.796;10.956;2022-09-21T01:42:48;9.00;85.10
67901;DHT22;54700;51.796;10.956;2022-09-21T01:45:19;9.10;85.40
67901;DHT22;54700;51.796;10.956;2022-09-21T01:47:51;9.10;85.30
67901;DHT22;54700;51.796;10.956;2022-09-21T01:50:22;9.00;85.30
67901;DHT22;54700;51.796;10.956;2022-09-21T01:52:51;9.10;85.30
67901;DHT22;54700;51.796;10.956;2022-09-21T01:55:27;9.00;85.30
67901;DHT22;54700;51.796;10.956;2022-09-21T01:57:58;9.00;85.20
67901;DHT22;54700;51.796;10.956;2022-09-21T02:00:28;9.00;85.20
67901;DHT22;54700;51.796;10.956;2022-09-21T02:03:00;9.00;85.30
67901;DHT22;54700;51.796;10.956;2022-09-21T02:05:31;9.00;85.40
67901;DHT22;54700;51.796;10.956;2022-09-21T02:07:58;9.00;85.40
67901;DHT22;54700;51.796;10.956;2022-09-21T02:10:27;8.90;85.20
67901;DHT22;54700;51.796;10.956;2022-09-21T02:12:59;8.90;85.40
67901;DHT22;54700;51.796;10.956;2022-09-21T02:15:40;8.80;85.40
67901;DHT22;54700;51.796;10.956;2022-09-21T02:18:17;8.80;85.60
67901;DHT22;54700;51.796;10.956;2022-09-21T02:20:55;8.70;85.80
67901;DHT22;54700;51.796;10.956;2022-09-21T02:23:24;8.60;86.10
67901;DHT22;54700;51.796;10.956;2022-09-21T02:25:58;8.70;86.20
67901;DHT22;54700;51.796;10.956;2022-09-21T02:28:33;8.70;86.20
67901;DHT22;54700;51.796;10.956;2022-09-21T02:31:11;8.70;86.00
67901;DHT22;54700;51.796;10.956;2022-09-21T02:33:44;8.70;85.90
67901;DHT22;54700;51.796;10.956;2022-09-21T02:36:19;8.80;85.80
67901;DHT22;54700;51.796;10.956;2022-09-21T02:38:55;8.80;85.60
67901;DHT22;54700;51.796;10.956;2022-09-21T02:41:32;8.80;85.60
67901;DHT22;54700;51.796;10.956;2022-09-21T02:44:06;8.80;85.50
67901;DHT22;54700;51.796;10.956;2022-09-21T02:46:39;8.80;85.50
67901;DHT22;54700;51.796;10.956;2022-09-21T02:49:10;8.80;85.60
67901;DHT22;54700;51.796;10.956;2022-09-21T02:51:42;8.80;85.60
67901;DHT22;54700;51.796;10.956;2022-09-21T02:54:12;8.80;85.40
67901;DHT22;54700;51.796;10.956;2022-09-21T02:56:42;8.80;85.30
67901;DHT22;54700;51.796;10.956;2022-09-21T02:59:12;8.80;85.10
67901;DHT22;54700;51.796;10.956;2022-09-21T03:01:42;8.80;85.00
67901;DHT22;54700;51.796;10.956;2022-09-21T03:04:09;8.80;85.00
67901;DHT22;54700;51.796;10.956;2022-09-21T03:06:36;8.80;84.80
67901;DHT22;54700;51.796;10.956;2022-09-21T03:09:03;8.80;84.60
67901;DHT22;54700;51.796;10.956;2022-09-21T03:11:29;8.90;84.70
67901;DHT22;54700;51.796;10.956;2022-09-21T03:13:56;8.80;84.70
67901;DHT22;54700;51.796;10.956;2022-09-21T03:16:23;8.80;84.70
67901;DHT22;54700;51.796;10.956;2022-09-21T03:18:51;8.80;84.50
67901;DHT22;54700;51.796;10.956;2022-09-21T03:21:18;8.70;84.50
67901;DHT22;54700;51.796;10.956;2022-09-21T03:23:46;8.70;84.30
67901;DHT22;54700;51.796;10.956;2022-09-21T03:26:13;8.70;84.30
67901;DHT22;54700;51.796;10.956;2022-09-21T03:28:39;8.70;84.30
67901;DHT22;54700;51.796;10.956;2022-09-21T03:31:06;8.70;84.20
67901;DHT22;54700;51.796;10.956;2022-09-21T03:33:33;8.70;84.10
67901;DHT22;54700;51.796;10.956;2022-09-21T03:36:01;8.60;84.00
67901;DHT22;54700;51.796;10.956;2022-09-21T03:38:28;8.70;84.00
67901;DHT22;54700;51.796;10.956;2022-09-21T03:40:55;8.70;83.80
67901;DHT22;54700;51.796;10.956;2022-09-21T03:43:22;8.70;83.60
67901;DHT22;54700;51.796;10.956;2022-09-21T03:45:49;8.70;83.50
67901;DHT22;54700;51.796;10.956;2022-09-21T03:48:16;8.70;83.40
67901;DHT22;54700;51.796;10.956;2022-09-21T03:50:43;8.70;83.30
67901;DHT22;54700;51.796;10.956;2022-09-21T03:53:11;8.70;83.30
67901;DHT22;54700;51.796;10.956;2022-09-21T03:55:38;8.60;83.40
67901;DHT22;54700;51.796;10.956;2022-09-21T03:58:05;8.60;83.60
67901;DHT22;54700;51.796;10.956;2022-09-21T04:00:32;8.50;83.50
67901;DHT22;54700;51.796;10.956;2022-09-21T04:02:58;8.50;83.70
67901;DHT22;54700;51.796;10.956;2022-09-21T04:05:26;8.50;83.90
67901;DHT22;54700;51.796;10.956;2022-09-21T04:07:53;8.40;83.90
67901;DHT22;54700;51.796;10.956;2022-09-21T04:10:22;8.30;84.20
67901;DHT22;54700;51.796;10.956;2022-09-21T04:12:57;8.20;84.40
67901;DHT22;54700;51.796;10.956;2022-09-21T04:15:26;8.10;85.10
67901;DHT22;54700;51.796;10.956;2022-09-21T04:17:53;8.00;85.30
67901;DHT22;54700;51.796;10.956;2022-09-21T04:20:20;7.90;85.20
67901;DHT22;54700;51.796;10.956;2022-09-21T04:22:47;7.90;85.50
67901;DHT22;54700;51.796;10.956;2022-09-21T04:25:15;7.80;85.70
67901;DHT22;54700;51.796;10.956;2022-09-21T04:27:44;7.80;85.90
67901;DHT22;54700;51.796;10.956;2022-09-21T04:30:11;7.80;86.10
67901;DHT22;54700;51.796;10.956;2022-09-21T04:32:39;7.80;86.50
67901;DHT22;54700;51.796;10.956;2022-09-21T04:35:06;7.80;86.40
67901;DHT22;54700;51.796;10.956;2022-09-21T04:37:34;7.80;86.20
67901;DHT22;54700;51.796;10.956;2022-09-21T04:40:00;7.90;86.10
67901;DHT22;54700;51.796;10.956;2022-09-21T04:42:28;7.80;86.10
67901;DHT22;54700;51.796;10.956;2022-09-21T04:44:58;7.90;86.00
67901;DHT22;54700;51.796;10.956;2022-09-21T04:47:24;7.80;85.80
67901;DHT22;54700;51.796;10.956;2022-09-21T04:49:53;7.80;85.70
67901;DHT22;54700;51.796;10.956;2022-09-21T04:52:20;7.70;85.60
67901;DHT22;54700;51.796;10.956;2022-09-21T04:54:50;7.70;85.90
67901;DHT22;54700;51.796;10.956;2022-09-21T04:57:24;7.70;86.00
67901;DHT22;54700;51.796;10.956;2022-09-21T05:00:34;7.70;86.20
67901;DHT22;54700;51.796;10.956;2022-09-21T05:03:21;7.70;86.50
67901;DHT22;54700;51.796;10.956;2022-09-21T05:05:50;7.70;86.20
67901;DHT22;54700;51.796;10.956;2022-09-21T05:08:23;7.60;86.30
67901;DHT22;54700;51.796;10.956;2022-09-21T05:11:06;7.70;86.30
67901;DHT22;54700;51.796;10.956;2022-09-21T05:13:34;7.70;86.20
67901;DHT22;54700;51.796;10.956;2022-09-21T05:16:05;7.70;86.20
67901;DHT22;54700;51.796;10.956;2022-09-21T05:18:33;7.70;85.90
67901;DHT22;54700;51.796;10.956;2022-09-21T05:21:01;7.80;85.90
67901;DHT22;54700;51.796;10.956;2022-09-21T05:23:29;7.80;85.90
67901;DHT22;54700;51.796;10.956;2022-09-21T05:25:57;7.80;85.60
67901;DHT22;54700;51.796;10.956;2022-09-21T05:28:27;7.70;85.40
67901;DHT22;54700;51.796;10.956;2022-09-21T05:30:59;7.60;86.40
67901;DHT22;54700;51.796;10.956;2022-09-21T05:33:49;7.50;86.20
67901;DHT22;54700;51.796;10.956;2022-09-21T05:36:38;7.40;87.60
67901;DHT22;54700;51.796;10.956;2022-09-21T05:39:11;7.40;87.60
67901;DHT22;54700;51.796;10.956;2022-09-21T05:41:46;7.40;88.10
67901;DHT22;54700;51.796;10.956;2022-09-21T05:44:23;7.50;88.30
67901;DHT22;54700;51.796;10.956;2022-09-21T05:47:15;7.50;88.00
67901;DHT22;54700;51.796;10.956;2022-09-21T05:50:16;7.60;87.80
67901;DHT22;54700;51.796;10.956;2022-09-21T05:56:29;7.80;87.30
67901;DHT22;54700;51.796;10.956;2022-09-21T05:59:25;7.90;87.00
67901;DHT22;54700;51.796;10.956;2022-09-21T06:05:56;8.10;86.60
67901;DHT22;54700;51.796;10.956;2022-09-21T06:08:23;8.20;86.50
67901;DHT22;54700;51.796;10.956;2022-09-21T06:10:51;8.20;86.20
67901;DHT22;54700;51.796;10.956;2022-09-21T06:13:19;8.30;86.30
67901;DHT22;54700;51.796;10.956;2022-09-21T06:15:46;8.30;86.30
67901;DHT22;54700;51.796;10.956;2022-09-21T06:18:15;8.40;86.20
67901;DHT22;54700;51.796;10.956;2022-09-21T06:20:58;8.50;86.30
67901;DHT22;54700;51.796;10.956;2022-09-21T06:23:26;8.60;86.00
67901;DHT22;54700;51.796;10.956;2022-09-21T06:25:58;8.70;85.60
67901;DHT22;54700;51.796;10.956;2022-09-21T06:28:26;8.80;85.00
67901;DHT22;54700;51.796;10.956;2022-09-21T06:30:56;8.90;84.60
67901;DHT22;54700;51.796;10.956;2022-09-21T06:33:33;9.00;84.20
67901;DHT22;54700;51.796;10.956;2022-09-21T06:36:04;9.20;83.70
67901;DHT22;54700;51.796;10.956;2022-09-21T06:38:31;9.30;83.50
67901;DHT22;54700;51.796;10.956;2022-09-21T06:40:59;9.40;83.20
67901;DHT22;54700;51.796;10.956;2022-09-21T06:43:30;9.50;82.80
67901;DHT22;54700;51.796;10.956;2022-09-21T06:45:57;9.60;82.50
67901;DHT22;54700;51.796;10.956;2022-09-21T06:48:27;9.70;82.30
67901;DHT22;54700;51.796;10.956;2022-09-21T06:50:56;9.80;81.80
67901;DHT22;54700;51.796;10.956;2022-09-21T06:53:25;9.90;81.40
67901;DHT22;54700;51.796;10.956;2022-09-21T06:55:58;10.00;80.90
67901;DHT22;54700;51.796;10.956;2022-09-21T06:58:31;10.10;80.60
67901;DHT22;54700;51.796;10.956;2022-09-21T07:01:03;10.10;80.30
67901;DHT22;54700;51.796;10.956;2022-09-21T07:03:31;10.20;80.40
67901;DHT22;54700;51.796;10.956;2022-09-21T07:05:58;10.20;80.40
67901;DHT22;54700;51.796;10.956;2022-09-21T07:08:27;10.30;80.10
67901;DHT22;54700;51.796;10.956;2022-09-21T07:10:56;10.30;80.90
67901;DHT22;54700;51.796;10.956;2022-09-21T07:13:24;10.40;79.70
67901;DHT22;54700;51.796;10.956;2022-09-21T07:15:55;10.50;79.60
67901;DHT22;54700;51.796;10.956;2022-09-21T07:18:23;10.60;78.50
67901;DHT22;54700;51.796;10.956;2022-09-21T07:20:50;10.70;78.00
67901;DHT22;54700;51.796;10.956;2022-09-21T07:23:17;10.80;77.00
67901;DHT22;54700;51.796;10.956;2022-09-21T07:25:49;10.80;76.00
67901;DHT22;54700;51.796;10.956;2022-09-21T07:28:33;10.90;75.40
67901;DHT22;54700;51.796;10.956;2022-09-21T07:31:04;11.10;75.70
67901;DHT22;54700;51.796;10.956;2022-09-21T07:33:36;11.10;75.90
67901;DHT22;54700;51.796;10.956;2022-09-21T07:36:10;11.10;76.20
67901;DHT22;54700;51.796;10.956;2022-09-21T07:38:43;11.20;76.30
67901;DHT22;54700;51.796;10.956;2022-09-21T07:45:29;11.30;76.50
67901;DHT22;54700;51.796;10.956;2022-09-21T07:51:58;11.30;75.90
67901;DHT22;54700;51.796;10.956;2022-09-21T07:54:34;11.40;75.30
67901;DHT22;54700;51.796;10.956;2022-09-21T08:04:19;11.60;73.70
67901;DHT22;54700;51.796;10.956;2022-09-21T08:10:04;11.60;73.10
67901;DHT22;54700;51.796;10.956;2022-09-21T08:12:34;11.70;72.80
67901;DHT22;54700;51.796;10.956;2022-09-21T08:15:01;11.70;72.50
67901;DHT22;54700;51.796;10.956;2022-09-21T08:17:35;11.70;72.70
67901;DHT22;54700;51.796;10.956;2022-09-21T08:20:06;11.80;73.30
67901;DHT22;54700;51.796;10.956;2022-09-21T08:22:41;11.80;73.10
67901;DHT22;54700;51.796;10.956;2022-09-21T08:25:08;11.80;73.00
67901;DHT22;54700;51.796;10.956;2022-09-21T08:27:35;11.90;73.50
67901;DHT22;54700;51.796;10.956;2022-09-21T08:30:08;11.90;73.30
67901;DHT22;54700;51.796;10.956;2022-09-21T08:32:39;11.90;72.60
67901;DHT22;54700;51.796;10.956;2022-09-21T08:35:07;12.00;73.00
67901;DHT22;54700;51.796;10.956;2022-09-21T08:37:34;12.00;73.70
67901;DHT22;54700;51.796;10.956;2022-09-21T08:40:12;12.10;72.80
67901;DHT22;54700;51.796;10.956;2022-09-21T08:42:54;12.10;71.80
67901;DHT22;54700;51.796;10.956;2022-09-21T08:45:31;12.10;72.00
67901;DHT22;54700;51.796;10.956;2022-09-21T08:48:12;12.10;71.30
67901;DHT22;54700;51.796;10.956;2022-09-21T08:50:46;12.10;71.30
67901;DHT22;54700;51.796;10.956;2022-09-21T08:53:18;12.10;71.10
67901;DHT22;54700;51.796;10.956;2022-09-21T08:56:03;12.20;71.40
67901;DHT22;54700;51.796;10.956;2022-09-21T08:59:07;12.30;71.40
67901;DHT22;54700;51.796;10.956;2022-09-21T09:01:45;12.30;71.20
67901;DHT22;54700;51.796;10.956;2022-09-21T09:04:26;12.40;71.00
67901;DHT22;54700;51.796;10.956;2022-09-21T09:07:13;12.40;70.60
67901;DHT22;54700;51.796;10.956;2022-09-21T09:09:58;12.40;69.10
67901;DHT22;54700;51.796;10.956;2022-09-21T09:12:40;12.40;70.60
67901;DHT22;54700;51.796;10.956;2022-09-21T09:15:31;12.50;69.60
67901;DHT22;54700;51.796;10.956;2022-09-21T09:18:24;12.50;70.60
67901;DHT22;54700;51.796;10.956;2022-09-21T09:21:09;12.60;70.40
67901;DHT22;54700;51.796;10.956;2022-09-21T09:23:44;12.60;70.20
67901;DHT22;54700;51.796;10.956;2022-09-21T09:26:16;12.70;70.40
67901;DHT22;54700;51.796;10.956;2022-09-21T09:28:54;12.70;70.20
67901;DHT22;54700;51.796;10.956;2022-09-21T09:31:27;12.80;68.30
67901;DHT22;54700;51.796;10.956;2022-09-21T09:34:12;12.80;68.60
67901;DHT22;54700;51.796;10.956;2022-09-21T09:40:28;12.80;69.60
67901;DHT22;54700;51.796;10.956;2022-09-21T09:43:30;12.80;69.70
67901;DHT22;54700;51.796;10.956;2022-09-21T09:46:14;13.00;68.00
67901;DHT22;54700;51.796;10.956;2022-09-21T09:49:01;13.00;67.10
67901;DHT22;54700;51.796;10.956;2022-09-21T09:51:44;13.00;65.90
67901;DHT22;54700;51.796;10.956;2022-09-21T09:54:26;13.10;66.10
67901;DHT22;54700;51.796;10.956;2022-09-21T10:00:05;13.10;66.30
67901;DHT22;54700;51.796;10.956;2022-09-21T10:02:44;13.20;65.90
67901;DHT22;54700;51.796;10.956;2022-09-21T10:05:19;13.30;66.40
67901;DHT22;54700;51.796;10.956;2022-09-21T10:08:07;13.30;65.70
67901;DHT22;54700;51.796;10.956;2022-09-21T10:10:59;13.40;64.10
67901;DHT22;54700;51.796;10.956;2022-09-21T10:13:40;13.40;64.20
67901;DHT22;54700;51.796;10.956;2022-09-21T10:16:11;13.50;62.60
67901;DHT22;54700;51.796;10.956;2022-09-21T10:18:44;13.50;65.40
67901;DHT22;54700;51.796;10.956;2022-09-21T10:21:15;13.60;65.40
67901;DHT22;54700;51.796;10.956;2022-09-21T10:23:45;13.70;63.90
67901;DHT22;54700;51.796;10.956;2022-09-21T10:26:14;13.70;63.60
67901;DHT22;54700;51.796;10.956;2022-09-21T10:28:58;13.70;63.10
67901;DHT22;54700;51.796;10.956;2022-09-21T10:31:27;13.80;62.50
67901;DHT22;54700;51.796;10.956;2022-09-21T10:34:04;13.70;63.60
67901;DHT22;54700;51.796;10.956;2022-09-21T10:36:37;13.80;64.60
67901;DHT22;54700;51.796;10.956;2022-09-21T10:39:18;13.90;64.80
67901;DHT22;54700;51.796;10.956;2022-09-21T10:41:47;13.90;63.00
67901;DHT22;54700;51.796;10.956;2022-09-21T10:44:21;14.00;63.30
67901;DHT22;54700;51.796;10.956;2022-09-21T10:46:51;14.00;62.90
67901;DHT22;54700;51.796;10.956;2022-09-21T10:49:20;14.00;61.50
67901;DHT22;54700;51.796;10.956;2022-09-21T10:51:49;14.10;60.70
67901;DHT22;54700;51.796;10.956;2022-09-21T10:54:22;13.90;60.50
67901;DHT22;54700;51.796;10.956;2022-09-21T10:56:57;13.80;61.50
67901;DHT22;54700;51.796;10.956;2022-09-21T10:59:35;13.70;60.40
67901;DHT22;54700;51.796;10.956;2022-09-21T11:02:23;13.70;61.30
67901;DHT22;54700;51.796;10.956;2022-09-21T11:04:55;13.70;60.90
67901;DHT22;54700;51.796;10.956;2022-09-21T11:07:27;13.80;60.40
67901;DHT22;54700;51.796;10.956;2022-09-21T11:09:59;13.90;59.40
67901;DHT22;54700;51.796;10.956;2022-09-21T11:12:39;13.90;58.50
67901;DHT22;54700;51.796;10.956;2022-09-21T11:15:22;14.10;59.80
67901;DHT22;54700;51.796;10.956;2022-09-21T11:17:58;14.30;59.40
67901;DHT22;54700;51.796;10.956;2022-09-21T11:20:35;14.50;58.70
67901;DHT22;54700;51.796;10.956;2022-09-21T11:23:21;14.60;59.10
67901;DHT22;54700;51.796;10.956;2022-09-21T11:25:59;14.50;58.10
67901;DHT22;54700;51.796;10.956;2022-09-21T11:28:42;14.40;58.80
67901;DHT22;54700;51.796;10.956;2022-09-21T11:34:27;14.40;58.90
67901;DHT22;54700;51.796;10.956;2022-09-21T11:37:08;14.40;61.10
67901;DHT22;54700;51.796;10.956;2022-09-21T11:39:52;14.50;60.10
67901;DHT22;54700;51.796;10.956;2022-09-21T11:45:45;14.70;55.80
67901;DHT22;54700;51.796;10.956;2022-09-21T11:48:28;14.70;55.20
67901;DHT22;54700;51.796;10.956;2022-09-21T11:51:07;14.70;55.80
67901;DHT22;54700;51.796;10.956;2022-09-21T11:54:01;14.50;56.40
67901;DHT22;54700;51.796;10.956;2022-09-21T11:56:43;14.40;57.10
67901;DHT22;54700;51.796;10.956;2022-09-21T11:59:20;14.40;57.10
67901;DHT22;54700;51.796;10.956;2022-09-21T12:02:03;14.40;58.40
67901;DHT22;54700;51.796;10.956;2022-09-21T12:04:51;14.50;58.30
67901;DHT22;54700;51.796;10.956;2022-09-21T12:07:28;14.60;57.50
67901;DHT22;54700;51.796;10.956;2022-09-21T12:13:05;14.80;56.50
67901;DHT22;54700;51.796;10.956;2022-09-21T12:15:40;14.90;55.80
67901;DHT22;54700;51.796;10.956;2022-09-21T12:18:16;14.90;55.40
67901;DHT22;54700;51.796;10.956;2022-09-21T12:21:07;14.90;55.40
67901;DHT22;54700;51.796;10.956;2022-09-21T12:23:40;14.90;55.00
67901;DHT22;54700;51.796;10.956;2022-09-21T12:26:10;14.90;55.50
67901;DHT22;54700;51.796;10.956;2022-09-21T12:28:46;14.90;56.30
67901;DHT22;54700;51.796;10.956;2022-09-21T12:31:20;14.80;56.20
67901;DHT22;54700;51.796;10.956;2022-09-21T12:33:52;14.80;56.00
67901;DHT22;54700;51.796;10.956;2022-09-21T12:36:30;14.80;54.20
67901;DHT22;54700;51.796;10.956;2022-09-21T12:39:04;14.70;56.60
67901;DHT22;54700;51.796;10.956;2022-09-21T12:41:37;14.80;57.20
67901;DHT22;54700;51.796;10.956;2022-09-21T12:44:16;14.80;55.30
67901;DHT22;54700;51.796;10.956;2022-09-21T12:46:51;14.90;55.20
67901;DHT22;54700;51.796;10.956;2022-09-21T12:49:35;14.90;55.10
67901;DHT22;54700;51.796;10.956;2022-09-21T12:52:12;15.00;54.00
67901;DHT22;54700;51.796;10.956;2022-09-21T12:54:46;15.00;53.90
67901;DHT22;54700;51.796;10.956;2022-09-21T12:57:19;15.00;53.80
67901;DHT22;54700;51.796;10.956;2022-09-21T13:00:02;15.10;54.20
67901;DHT22;54700;51.796;10.956;2022-09-21T13:02:32;15.20;54.70
67901;DHT22;54700;51.796;10.956;2022-09-21T13:05:11;15.30;52.10
67901;DHT22;54700;51.796;10.956;2022-09-21T13:08:04;15.30;53.70
67901;DHT22;54700;51.796;10.956;2022-09-21T13:10:39;15.40;55.10
67901;DHT22;54700;51.796;10.956;2022-09-21T13:13:17;15.40;54.10
67901;DHT22;54700;51.796;10.956;2022-09-21T13:15:58;15.50;53.90
67901;DHT22;54700;51.796;10.956;2022-09-21T13:18:26;15.50;53.80
67901;DHT22;54700;51.796;10.956;2022-09-21T13:20:58;15.60;52.10
67901;DHT22;54700;51.796;10.956;2022-09-21T13:23:29;15.60;50.60
67901;DHT22;54700;51.796;10.956;2022-09-21T13:26:02;15.60;50.50
67901;DHT22;54700;51.796;10.956;2022-09-21T13:31:53;15.70;51.00
67901;DHT22;54700;51.796;10.956;2022-09-21T13:34:24;15.80;51.40
67901;DHT22;54700;51.796;10.956;2022-09-21T13:43:23;15.90;51.10
67901;DHT22;54700;51.796;10.956;2022-09-21T13:49:19;16.00;51.30
67901;DHT22;54700;51.796;10.956;2022-09-21T13:51:54;16.00;52.50
67901;DHT22;54700;51.796;10.956;2022-09-21T13:54:28;16.00;51.00
67901;DHT22;54700;51.796;10.956;2022-09-21T13:57:14;16.00;51.60
67901;DHT22;54700;51.796;10.956;2022-09-21T13:59:47;16.00;50.80
67901;DHT22;54700;51.796;10.956;2022-09-21T14:02:28;16.10;51.00
67901;DHT22;54700;51.796;10.956;2022-09-21T14:05:05;16.20;51.60
67901;DHT22;54700;51.796;10.956;2022-09-21T14:07:34;16.20;49.30
67901;DHT22;54700;51.796;10.956;2022-09-21T14:10:04;16.20;49.00
67901;DHT22;54700;51.796;10.956;2022-09-21T14:12:38;16.20;48.30
67901;DHT22;54700;51.796;10.956;2022-09-21T14:18:21;16.30;47.60
67901;DHT22;54700;51.796;10.956;2022-09-21T14:21:11;16.30;46.80
67901;DHT22;54700;51.796;10.956;2022-09-21T14:26:35;16.20;48.80
67901;DHT22;54700;51.796;10.956;2022-09-21T14:29:15;16.10;51.30
67901;DHT22;54700;51.796;10.956;2022-09-21T14:31:48;16.00;53.00
67901;DHT22;54700;51.796;10.956;2022-09-21T14:34:26;15.90;53.00
67901;DHT22;54700;51.796;10.956;2022-09-21T14:37:01;15.90;54.60
67901;DHT22;54700;51.796;10.956;2022-09-21T14:39:45;15.90;53.90
67901;DHT22;54700;51.796;10.956;2022-09-21T14:42:14;15.90;54.30
67901;DHT22;54700;51.796;10.956;2022-09-21T14:44:43;15.90;54.30
67901;DHT22;54700;51.796;10.956;2022-09-21T14:50:11;15.90;52.20
67901;DHT22;54700;51.796;10.956;2022-09-21T14:52:54;15.80;51.50
67901;DHT22;54700;51.796;10.956;2022-09-21T14:55:42;15.70;52.60
67901;DHT22;54700;51.796;10.956;2022-09-21T14:58:25;15.60;52.10
67901;DHT22;54700;51.796;10.956;2022-09-21T15:01:17;15.50;53.10
67901;DHT22;54700;51.796;10.956;2022-09-21T15:04:00;15.30;51.10
67901;DHT22;54700;51.796;10.956;2022-09-21T15:06:53;15.20;52.80
67901;DHT22;54700;51.796;10.956;2022-09-21T15:09:51;15.00;52.90
67901;DHT22;54700;51.796;10.956;2022-09-21T15:12:58;14.90;53.80
67901;DHT22;54700;51.796;10.956;2022-09-21T15:15:34;14.90;53.90
67901;DHT22;54700;51.796;10.956;2022-09-21T15:18:13;14.90;53.80
67901;DHT22;54700;51.796;10.956;2022-09-21T15:20:59;14.90;53.70
67901;DHT22;54700;51.796;10.956;2022-09-21T15:23:28;14.90;53.50
67901;DHT22;54700;51.796;10.956;2022-09-21T15:25:58;14.90;53.40
67901;DHT22;54700;51.796;10.956;2022-09-21T15:28:29;14.80;53.70
67901;DHT22;54700;51.796;10.956;2022-09-21T15:31:03;14.90;54.80
67901;DHT22;54700;51.796;10.956;2022-09-21T15:33:34;14.80;54.80
67901;DHT22;54700;51.796;10.956;2022-09-21T15:36:04;14.80;55.10
67901;DHT22;54700;51.796;10.956;2022-09-21T15:38:34;14.80;55.40
67901;DHT22;54700;51.796;10.956;2022-09-21T15:41:03;14.70;55.20
67901;DHT22;54700;51.796;10.956;2022-09-21T15:43:33;14.70;55.80
67901;DHT22;54700;51.796;10.956;2022-09-21T15:46:00;14.60;56.10
67901;DHT22;54700;51.796;10.956;2022-09-21T15:48:29;14.60;56.70
67901;DHT22;54700;51.796;10.956;2022-09-21T15:51:00;14.60;56.80
67901;DHT22;54700;51.796;10.956;2022-09-21T15:53:37;14.60;55.80
67901;DHT22;54700;51.796;10.956;2022-09-21T15:56:13;14.60;56.20
67901;DHT22;54700;51.796;10.956;2022-09-21T15:58:43;14.60;56.10
67901;DHT22;54700;51.796;10.956;2022-09-21T16:01:10;14.60;56.10
67901;DHT22;54700;51.796;10.956;2022-09-21T16:03:40;14.50;56.30
67901;DHT22;54700;51.796;10.956;2022-09-21T16:06:24;14.60;56.70
67901;DHT22;54700;51.796;10.956;2022-09-21T16:08:52;14.60;56.60
67901;DHT22;54700;51.796;10.956;2022-09-21T16:11:25;14.50;57.10
67901;DHT22;54700;51.796;10.956;2022-09-21T16:14:05;14.50;57.50
67901;DHT22;54700;51.796;10.956;2022-09-21T16:17:04;14.50;57.40
67901;DHT22;54700;51.796;10.956;2022-09-21T16:20:04;14.40;57.30
67901;DHT22;54700;51.796;10.956;2022-09-21T16:22:51;14.40;58.10
67901;DHT22;54700;51.796;10.956;2022-09-21T16:25:29;14.30;58.80
67901;DHT22;54700;51.796;10.956;2022-09-21T16:27:58;14.20;59.00
67901;DHT22;54700;51.796;10.956;2022-09-21T16:30:42;14.20;59.60
67901;DHT22;54700;51.796;10.956;2022-09-21T16:36:08;14.10;60.20
67901;DHT22;54700;51.796;10.956;2022-09-21T16:39:11;14.00;60.60
67901;DHT22;54700;51.796;10.956;2022-09-21T16:41:41;13.90;61.40
67901;DHT22;54700;51.796;10.956;2022-09-21T16:44:12;13.80;61.60
67901;DHT22;54700;51.796;10.956;2022-09-21T16:46:44;13.70;62.00
67901;DHT22;54700;51.796;10.956;2022-09-21T16:49:17;13.60;62.30
67901;DHT22;54700;51.796;10.956;2022-09-21T16:51:46;13.50;61.40
67901;DHT22;54700;51.796;10.956;2022-09-21T16:54:15;13.40;62.20
67901;DHT22;54700;51.796;10.956;2022-09-21T16:56:43;13.40;63.10
67901;DHT22;54700;51.796;10.956;2022-09-21T16:59:15;13.30;63.80
67901;DHT22;54700;51.796;10.956;2022-09-21T17:01:46;13.20;65.10
67901;DHT22;54700;51.796;10.956;2022-09-21T17:04:15;13.10;65.70
67901;DHT22;54700;51.796;10.956;2022-09-21T17:06:43;12.90;65.90
67901;DHT22;54700;51.796;10.956;2022-09-21T17:09:14;12.80;66.00
67901;DHT22;54700;51.796;10.956;2022-09-21T17:11:44;12.80;65.90
67901;DHT22;54700;51.796;10.956;2022-09-21T17:14:23;12.70;66.10